Time;durP1;ratioP1;P1;durP2;ratioP2;P2;SDS_P1;SDS_P2;PMS_P1;PMS_P2;Temp;Humidity;BMP_temperature;BMP_pressure;BME280_temperature;BME280_humidity;BME280_pressure;Samples;Min_cycle;Max_cycle;Signal;HPM_P1;HPM_P2
2023/03/11 00:00:43;;;;;;;12.70;4.70;;;2.30;99.90;;;;;;5076491;28;20177;-74
2023/03/11 00:03:12;;;;;;;12.23;7.10;;;2.30;99.90;;;;;;5076529;28;20176;-74
2023/03/11 00:05:40;;;;;;;21.57;6.57;;;2.30;99.90;;;;;;5075875;28;20172;-73
2023/03/11 00:08:07;;;;;;;7.37;3.40;;;2.30;99.90;;;;;;5076260;28;20184;-73
2023/03/11 00:10:38;;;;;;;9.30;3.63;;;2.20;99.90;;;;;;5075995;28;20216;-74
2023/03/11 00:13:05;;;;;;;6.47;4.03;;;2.20;99.90;;;;;;5076191;28;20217;-75
2023/03/11 00:15:35;;;;;;;8.37;3.43;;;2.20;99.90;;;;;;5076213;28;20172;-74
2023/03/11 00:18:01;;;;;;;6.10;3.07;;;2.20;99.90;;;;;;5075994;28;20593;-74
2023/03/11 00:20:38;;;;;;;8.53;3.03;;;2.20;99.90;;;;;;5075811;28;20183;-74
2023/03/11 00:23:06;;;;;;;7.43;3.07;;;2.20;99.90;;;;;;5057841;28;20179;-74
2023/03/11 00:25:33;;;;;;;7.87;3.67;;;2.10;99.90;;;;;;5075860;28;20164;-74
2023/03/11 00:28:00;;;;;;;5.77;3.20;;;2.10;99.90;;;;;;5075814;28;20259;-74
2023/03/11 00:30:26;;;;;;;8.83;4.20;;;2.10;99.90;;;;;;5075875;28;20184;-74
2023/03/11 00:32:57;;;;;;;8.37;3.20;;;2.10;99.90;;;;;;5076258;28;20169;-75
2023/03/11 00:35:26;;;;;;;8.37;4.17;;;2.10;99.90;;;;;;5075834;28;20199;-73
2023/03/11 00:38:03;;;;;;;6.53;3.10;;;2.10;99.90;;;;;;5075611;28;20253;-73
2023/03/11 00:40:48;;;;;;;8.10;2.83;;;2.10;99.90;;;;;;5057855;28;20520;-74
2023/03/11 00:43:15;;;;;;;5.97;3.50;;;2.00;99.90;;;;;;5075996;28;20179;-74
2023/03/11 00:45:41;;;;;;;5.47;3.17;;;2.00;99.90;;;;;;5075851;28;20608;-72
2023/03/11 00:48:11;;;;;;;5.60;2.83;;;2.00;99.90;;;;;;5075216;28;20670;-74
2023/03/11 00:50:37;;;;;;;5.80;2.93;;;1.90;99.90;;;;;;5075460;28;20200;-74
2023/03/11 00:53:03;;;;;;;9.17;3.17;;;1.90;99.90;;;;;;5075553;28;20173;-74
2023/03/11 00:55:34;;;;;;;8.93;3.40;;;1.90;99.90;;;;;;5075547;28;20255;-74
2023/03/11 00:58:04;;;;;;;8.60;3.40;;;1.90;99.90;;;;;;5075555;28;20204;-74
2023/03/11 01:00:30;;;;;;;6.73;3.03;;;1.90;99.90;;;;;;5075238;28;20172;-73
2023/03/11 01:02:56;;;;;;;4.67;2.60;;;1.80;99.90;;;;;;5075128;28;20204;-73
2023/03/11 01:05:25;;;;;;;9.17;3.10;;;1.80;99.90;;;;;;5075196;28;20197;-72
2023/03/11 01:07:50;;;;;;;11.27;3.10;;;1.80;99.90;;;;;;5075409;28;20160;-72
2023/03/11 01:10:16;;;;;;;5.63;2.77;;;1.70;99.90;;;;;;5075347;28;20196;-73
2023/03/11 01:12:45;;;;;;;9.30;3.70;;;1.70;99.90;;;;;;5075132;28;20172;-73
2023/03/11 01:15:32;;;;;;;10.63;3.37;;;1.70;99.90;;;;;;5057253;28;20173;-72
2023/03/11 01:17:58;;;;;;;7.63;3.30;;;1.70;99.90;;;;;;5074575;28;20231;-73
2023/03/11 01:20:27;;;;;;;8.83;3.60;;;1.60;99.90;;;;;;5075191;28;20527;-74
2023/03/11 01:22:53;;;;;;;6.43;3.30;;;1.50;99.90;;;;;;5075161;28;20196;-72
2023/03/11 01:25:22;;;;;;;11.80;4.40;;;1.60;99.90;;;;;;5075099;28;20627;-73
2023/03/11 01:27:47;;;;;;;6.50;3.50;;;1.60;99.90;;;;;;5074926;28;20173;-74
2023/03/11 01:30:17;;;;;;;10.80;3.50;;;1.60;99.90;;;;;;5057021;28;20183;-72
2023/03/11 01:32:42;;;;;;;10.73;4.20;;;1.60;99.90;;;;;;5074489;28;20546;-74
2023/03/11 01:35:12;;;;;;;9.27;3.77;;;1.60;99.90;;;;;;5074876;28;20241;-74
2023/03/11 01:37:37;;;;;;;5.57;3.30;;;1.60;99.90;;;;;;5056681;28;20310;-73
2023/03/11 01:40:03;;;;;;;8.93;3.87;;;1.60;99.90;;;;;;5074819;28;20208;-74
2023/03/11 01:42:29;;;;;;;9.60;3.40;;;1.60;99.90;;;;;;5074619;28;20224;-74
2023/03/11 01:44:55;;;;;;;7.07;3.50;;;1.60;99.90;;;;;;5074707;28;20683;-73
2023/03/11 01:47:37;;;;;;;6.00;3.80;;;1.70;99.90;;;;;;5074143;28;20278;-73
2023/03/11 01:50:07;;;;;;;6.87;3.63;;;1.60;99.90;;;;;;5074417;28;20169;-72
2023/03/11 01:52:34;;;;;;;15.40;4.20;;;1.70;99.90;;;;;;5056868;28;20160;-74
2023/03/11 01:55:00;;;;;;;7.73;3.60;;;1.70;99.90;;;;;;5074264;28;20176;-73
2023/03/11 01:57:25;;;;;;;7.87;4.00;;;1.80;99.90;;;;;;5074291;28;20197;-73
2023/03/11 01:59:56;;;;;;;6.47;3.60;;;1.90;99.90;;;;;;5073408;28;20184;-72
2023/03/11 02:02:34;;;;;;;9.23;4.50;;;2.00;99.90;;;;;;5074204;28;20157;-72
2023/03/11 02:05:01;;;;;;;8.70;3.97;;;2.00;99.90;;;;;;5056321;28;20245;-73
2023/03/11 02:07:27;;;;;;;9.23;4.00;;;2.00;99.90;;;;;;5074068;28;20169;-73
2023/03/11 02:09:53;;;;;;;7.27;4.30;;;2.10;99.90;;;;;;5074008;28;20673;-73
2023/03/11 02:12:22;;;;;;;6.57;3.77;;;2.00;99.90;;;;;;5056229;28;20169;-73
2023/03/11 02:14:51;;;;;;;7.03;4.17;;;2.10;99.90;;;;;;5073289;28;20224;-74
2023/03/11 02:17:19;;;;;;;8.83;4.10;;;2.20;99.90;;;;;;5073406;28;20188;-73
2023/03/11 02:20:00;;;;;;;4.50;3.90;;;2.10;99.90;;;;;;5073864;28;20169;-72
2023/03/11 02:22:32;;;;;;;11.53;4.20;;;2.20;99.90;;;;;;5055922;28;20268;-73
2023/03/11 02:25:30;;;;;;;11.10;4.27;;;2.30;99.90;;;;;;5073851;28;20173;-73
2023/03/11 02:27:57;;;;;;;13.73;4.60;;;2.30;99.90;;;;;;5073494;28;20185;-73
2023/03/11 02:30:25;;;;;;;10.73;4.30;;;2.30;99.90;;;;;;5073228;28;20156;-72
2023/03/11 02:32:54;;;;;;;14.10;4.53;;;2.30;99.90;;;;;;5073744;28;20168;-73
2023/03/11 02:35:20;;;;;;;14.50;4.13;;;2.40;99.90;;;;;;5073403;28;20160;-73
2023/03/11 02:37:48;;;;;;;12.50;4.37;;;2.50;99.90;;;;;;5055421;28;20220;-73
2023/03/11 02:40:47;;;;;;;8.50;3.90;;;2.50;99.90;;;;;;5073492;28;20176;-73
2023/03/11 02:43:17;;;;;;;6.33;3.87;;;2.40;99.90;;;;;;5073544;28;20162;-73
2023/03/11 02:45:44;;;;;;;27.93;4.50;;;2.40;99.90;;;;;;5073149;28;20208;-72
2023/03/11 02:48:11;;;;;;;8.70;3.90;;;2.50;99.90;;;;;;5055398;28;20208;-73
2023/03/11 02:50:38;;;;;;;12.20;4.00;;;2.40;99.90;;;;;;5073428;28;20176;-73
2023/03/11 02:53:05;;;;;;;6.67;3.70;;;2.40;99.90;;;;;;5055299;28;20180;-73
2023/03/11 02:55:34;;;;;;;15.80;4.23;;;2.40;99.90;;;;;;5073403;28;20169;-73
2023/03/11 02:58:00;;;;;;;9.90;4.40;;;2.30;99.90;;;;;;5072974;28;20568;-73
2023/03/11 03:00:28;;;;;;;6.90;3.93;;;2.40;99.90;;;;;;5055329;28;20167;-74
2023/03/11 03:02:54;;;;;;;8.47;4.47;;;2.40;99.90;;;;;;5073323;28;20191;-73
2023/03/11 03:05:21;;;;;;;9.37;4.53;;;2.30;99.90;;;;;;5073193;28;20161;-73
2023/03/11 03:07:48;;;;;;;8.97;4.13;;;2.30;99.90;;;;;;5073118;28;20160;-73
2023/03/11 03:10:15;;;;;;;13.17;4.47;;;2.20;99.90;;;;;;5073234;28;20207;-72
2023/03/11 03:12:41;;;;;;;13.77;4.07;;;2.20;99.90;;;;;;5072454;28;20638;-73
2023/03/11 03:15:07;;;;;;;6.70;3.83;;;2.20;99.90;;;;;;5073186;28;20180;-73
2023/03/11 03:17:33;;;;;;;9.23;3.83;;;2.20;99.90;;;;;;5073045;28;20196;-73
2023/03/11 03:19:58;;;;;;;8.90;3.67;;;2.20;99.90;;;;;;5072982;28;20531;-73
2023/03/11 03:22:26;;;;;;;11.23;3.93;;;2.20;99.90;;;;;;5072942;28;20175;-73
2023/03/11 03:24:55;;;;;;;5.47;3.40;;;2.20;99.90;;;;;;5073020;28;20168;-72
2023/03/11 03:27:20;;;;;;;11.27;5.30;;;2.30;99.90;;;;;;5072771;28;20649;-73
2023/03/11 03:29:49;;;;;;;9.33;3.87;;;2.30;99.90;;;;;;5075195;28;20251;-73
2023/03/11 03:32:14;;;;;;;9.03;3.80;;;2.30;99.90;;;;;;5059099;28;20169;-73
2023/03/11 03:34:43;;;;;;;9.43;4.13;;;2.40;99.90;;;;;;5076926;28;20236;-73
2023/03/11 03:37:08;;;;;;;6.23;4.00;;;2.40;99.90;;;;;;5058908;28;20168;-74
2023/03/11 03:39:34;;;;;;;8.03;3.73;;;2.60;99.90;;;;;;5077028;28;20246;-73
2023/03/11 03:41:59;;;;;;;8.97;4.10;;;2.60;99.90;;;;;;5076854;28;20169;-73
2023/03/11 03:44:29;;;;;;;8.10;3.80;;;2.60;99.90;;;;;;5077035;28;20180;-72
2023/03/11 03:46:55;;;;;;;7.83;4.33;;;2.60;99.90;;;;;;5076757;28;20187;-73
2023/03/11 03:49:23;;;;;;;10.10;4.20;;;2.60;99.90;;;;;;5076582;28;20628;-73
2023/03/11 03:51:49;;;;;;;7.57;4.10;;;2.60;99.90;;;;;;5076827;28;20177;-73
2023/03/11 03:54:15;;;;;;;10.20;4.17;;;2.60;99.90;;;;;;5058709;28;20172;-73
2023/03/11 03:56:40;;;;;;;10.70;4.27;;;2.60;99.90;;;;;;5076395;28;20172;-72
2023/03/11 03:59:06;;;;;;;8.80;3.93;;;2.50;99.90;;;;;;5075537;28;20289;-72
2023/03/11 04:01:31;;;;;;;7.50;4.10;;;2.60;99.90;;;;;;5076753;28;20161;-72
2023/03/11 04:03:57;;;;;;;9.47;3.80;;;2.50;99.90;;;;;;5076564;28;20577;-73
2023/03/11 04:06:24;;;;;;;13.30;4.43;;;2.50;99.90;;;;;;5076329;28;20173;-73
2023/03/11 04:08:51;;;;;;;10.93;3.83;;;2.50;99.90;;;;;;5076399;28;20172;-72
2023/03/11 04:11:17;;;;;;;8.43;4.07;;;2.50;99.90;;;;;;5075759;28;20681;-72
2023/03/11 04:13:43;;;;;;;8.40;4.43;;;2.40;99.90;;;;;;5075845;28;20295;-72
2023/03/11 04:16:14;;;;;;;10.30;4.37;;;2.40;99.90;;;;;;5076331;28;20161;-72
2023/03/11 04:18:40;;;;;;;16.73;4.97;;;2.30;99.90;;;;;;5075781;28;20204;-74
2023/03/11 04:21:06;;;;;;;10.00;4.33;;;2.30;99.90;;;;;;5075981;28;20175;-73
2023/03/11 04:23:32;;;;;;;8.63;4.20;;;2.20;99.90;;;;;;5076018;28;20176;-73
2023/03/11 04:26:07;;;;;;;7.10;4.60;;;2.20;99.90;;;;;;5075893;28;20176;-73
2023/03/11 04:28:35;;;;;;;10.20;4.00;;;2.00;99.90;;;;;;5075967;28;20168;-73
2023/03/11 04:31:04;;;;;;;11.87;4.37;;;2.00;99.90;;;;;;5075805;28;20172;-73
2023/03/11 04:33:30;;;;;;;11.80;4.57;;;2.00;99.90;;;;;;5075824;28;20161;-73
2023/03/11 04:35:55;;;;;;;12.90;4.43;;;1.90;99.90;;;;;;5076000;28;20187;-72
2023/03/11 04:38:23;;;;;;;6.13;4.07;;;1.80;99.90;;;;;;5075633;28;20288;-73
2023/03/11 04:40:49;;;;;;;9.77;4.50;;;1.70;99.90;;;;;;5075006;28;20237;-72
2023/03/11 04:43:14;;;;;;;10.63;4.57;;;1.70;99.90;;;;;;5075687;28;20172;-73
2023/03/11 04:45:41;;;;;;;9.20;4.90;;;1.70;99.90;;;;;;5057700;28;20527;-73
2023/03/11 04:48:07;;;;;;;13.47;5.53;;;1.80;99.90;;;;;;5057488;28;20230;-72
2023/03/11 04:50:33;;;;;;;9.30;4.93;;;1.80;99.90;;;;;;5057301;28;20179;-73
2023/03/11 04:52:59;;;;;;;13.50;5.17;;;1.70;99.90;;;;;;5075859;28;20259;-72
2023/03/11 04:55:24;;;;;;;12.70;5.33;;;1.70;99.90;;;;;;5074961;28;20168;-72
2023/03/11 04:57:50;;;;;;;14.03;5.60;;;1.70;99.90;;;;;;5075607;28;20235;-72
2023/03/11 05:00:21;;;;;;;9.47;5.90;;;1.60;99.90;;;;;;5075568;28;20184;-72
2023/03/11 05:02:47;;;;;;;9.77;5.23;;;1.50;99.90;;;;;;5075580;28;20623;-72
2023/03/11 05:05:12;;;;;;;12.43;5.37;;;1.40;99.90;;;;;;5074611;28;20180;-72
2023/03/11 05:07:38;;;;;;;8.60;5.30;;;1.40;99.90;;;;;;5075384;28;20606;-73
2023/03/11 05:10:04;;;;;;;9.30;5.73;;;1.50;99.90;;;;;;5074930;28;20295;-73
2023/03/11 05:12:30;;;;;;;11.83;5.10;;;1.50;99.90;;;;;;5074663;28;20238;-71
2023/03/11 05:14:55;;;;;;;9.07;5.60;;;1.50;99.90;;;;;;5075057;28;20224;-72
2023/03/11 05:17:21;;;;;;;14.97;6.07;;;1.40;99.90;;;;;;5075117;28;20254;-71
2023/03/11 05:19:47;;;;;;;9.23;5.10;;;1.50;99.90;;;;;;5075013;28;20181;-73
2023/03/11 05:22:13;;;;;;;8.47;5.10;;;1.50;99.90;;;;;;5074819;28;20173;-73
2023/03/11 05:24:39;;;;;;;10.23;5.50;;;1.40;99.90;;;;;;5074657;28;20224;-72
2023/03/11 05:27:05;;;;;;;11.40;5.23;;;1.40;99.90;;;;;;5074541;28;20165;-72
2023/03/11 05:29:31;;;;;;;12.23;5.70;;;1.40;99.90;;;;;;5074962;28;20191;-72
2023/03/11 05:31:56;;;;;;;13.83;5.63;;;1.40;99.90;;;;;;5075080;28;20173;-72
2023/03/11 05:34:22;;;;;;;11.60;6.17;;;1.40;99.90;;;;;;5056550;28;20229;-72
2023/03/11 05:36:48;;;;;;;11.50;5.70;;;1.40;99.90;;;;;;5074694;28;20208;-73
2023/03/11 05:39:14;;;;;;;6.97;5.37;;;1.40;99.90;;;;;;5074193;28;20212;-73
2023/03/11 05:41:39;;;;;;;8.67;5.23;;;1.40;99.90;;;;;;5074615;28;20177;-73
2023/03/11 05:44:05;;;;;;;15.77;5.57;;;1.40;99.90;;;;;;5074563;28;20176;-72
2023/03/11 05:46:31;;;;;;;13.17;6.40;;;1.30;99.90;;;;;;5074472;28;20196;-73
2023/03/11 05:48:59;;;;;;;12.10;6.23;;;1.30;99.90;;;;;;5074367;28;20184;-74
2023/03/11 05:51:25;;;;;;;9.67;6.10;;;1.30;99.90;;;;;;5073900;28;20203;-74
2023/03/11 05:53:50;;;;;;;13.03;5.97;;;1.30;99.90;;;;;;5073734;28;20172;-72
2023/03/11 05:56:19;;;;;;;9.17;5.63;;;1.40;99.90;;;;;;5074256;28;20196;-72
2023/03/11 05:58:45;;;;;;;11.80;5.60;;;1.30;99.90;;;;;;5074095;28;20215;-73
2023/03/11 06:01:16;;;;;;;12.43;5.97;;;1.40;99.90;;;;;;5074189;28;20256;-73
2023/03/11 06:03:42;;;;;;;10.60;5.60;;;1.40;99.90;;;;;;5074188;28;20187;-72
2023/03/11 06:06:10;;;;;;;10.80;6.03;;;1.40;99.90;;;;;;5056032;28;20191;-73
2023/03/11 06:08:36;;;;;;;9.30;5.93;;;1.30;99.90;;;;;;5073623;28;20225;-73
2023/03/11 06:11:09;;;;;;;11.40;5.90;;;1.20;99.90;;;;;;5055773;28;20600;-73
2023/03/11 06:13:36;;;;;;;14.07;6.63;;;1.30;99.90;;;;;;5073628;28;20319;-72
2023/03/11 06:16:02;;;;;;;11.67;6.30;;;1.30;99.90;;;;;;5073683;28;20173;-74
2023/03/11 06:18:28;;;;;;;9.07;5.83;;;1.30;99.90;;;;;;5073782;28;20204;-72
2023/03/11 06:20:57;;;;;;;11.97;5.60;;;1.40;99.90;;;;;;5073273;28;20557;-72
2023/03/11 06:23:24;;;;;;;16.40;6.40;;;1.50;99.90;;;;;;5055663;28;20500;-73
2023/03/11 06:26:01;;;;;;;12.07;6.23;;;1.50;99.90;;;;;;5073691;28;20181;-73
2023/03/11 06:28:28;;;;;;;13.43;6.13;;;1.50;99.90;;;;;;5073307;28;20710;-73
2023/03/11 06:30:55;;;;;;;13.90;6.13;;;1.60;99.90;;;;;;5073702;28;20183;-73
2023/03/11 06:33:22;;;;;;;10.03;6.00;;;1.70;99.90;;;;;;5055687;28;20176;-73
2023/03/11 06:35:58;;;;;;;9.50;6.20;;;1.90;99.90;;;;;;5073467;28;20180;-73
2023/03/11 06:38:25;;;;;;;10.87;5.67;;;2.00;99.90;;;;;;5073439;28;20651;-73
2023/03/11 06:40:51;;;;;;;12.97;6.33;;;2.20;99.90;;;;;;5073280;28;20247;-73
2023/03/11 06:43:17;;;;;;;10.23;5.93;;;2.30;99.90;;;;;;5073512;28;20164;-73
2023/03/11 06:45:43;;;;;;;13.50;6.10;;;2.50;99.90;;;;;;5055006;28;20218;-71
2023/03/11 06:48:09;;;;;;;8.37;5.40;;;2.60;99.90;;;;;;5073255;28;20643;-72
2023/03/11 06:50:34;;;;;;;10.43;6.17;;;2.60;99.90;;;;;;5072477;28;20164;-72
2023/03/11 06:53:01;;;;;;;12.70;5.60;;;2.70;99.90;;;;;;5073017;28;20168;-73
2023/03/11 06:55:27;;;;;;;14.70;6.57;;;2.80;99.90;;;;;;5073080;28;20165;-74
2023/03/11 06:57:53;;;;;;;15.43;6.50;;;2.80;99.90;;;;;;5073162;28;20204;-73
2023/03/11 07:00:19;;;;;;;7.73;5.93;;;3.10;99.90;;;;;;5073205;28;20172;-72
2023/03/11 07:02:44;;;;;;;9.77;5.37;;;3.40;99.90;;;;;;5072810;28;20176;-72
2023/03/11 07:05:11;;;;;;;12.93;5.70;;;3.40;99.90;;;;;;5071667;28;20686;-73
2023/03/11 07:07:37;;;;;;;7.70;5.40;;;3.50;99.90;;;;;;5073263;28;20229;-73
2023/03/11 07:10:03;;;;;;;12.30;5.50;;;3.90;99.90;;;;;;5073009;28;20188;-73
2023/03/11 07:12:29;;;;;;;8.97;5.50;;;4.40;99.90;;;;;;5055084;28;20820;-73
2023/03/11 07:14:55;;;;;;;9.60;5.40;;;5.30;99.90;;;;;;5072733;28;20295;-73
2023/03/11 07:17:21;;;;;;;8.20;4.70;;;6.70;99.90;;;;;;5072630;28;20172;-72
2023/03/11 07:19:47;;;;;;;10.03;4.57;;;8.20;99.90;;;;;;5072376;28;20283;-72
2023/03/11 07:22:13;;;;;;;7.20;4.20;;;9.10;99.90;;;;;;5072722;28;20222;-73
2023/03/11 07:24:39;;;;;;;6.63;4.60;;;10.10;99.90;;;;;;5072620;28;20164;-74
2023/03/11 07:27:05;;;;;;;5.33;4.00;;;11.60;99.90;;;;;;5073292;28;20187;-75
2023/03/11 07:29:31;;;;;;;7.23;4.33;;;12.60;97.30;;;;;;5072492;28;20628;-73
2023/03/11 07:31:56;;;;;;;6.47;3.90;;;13.80;93.70;;;;;;5072911;28;20182;-74
2023/03/11 07:34:22;;;;;;;6.60;4.13;;;14.00;91.70;;;;;;5054373;28;20180;-75
2023/03/11 07:36:48;;;;;;;6.20;4.17;;;14.30;87.40;;;;;;5072445;28;20181;-76
2023/03/11 07:39:15;;;;;;;6.37;4.10;;;13.30;89.60;;;;;;5072269;28;20208;-75
2023/03/11 07:41:41;;;;;;;10.38;4.30;;;14.10;89.80;;;;;;5072026;28;20287;-75
2023/03/11 07:44:07;;;;;;;5.28;3.88;;;15.00;82.90;;;;;;5072782;28;20175;-75
2023/03/11 07:46:33;;;;;;;9.20;4.60;;;16.00;75.90;;;;;;5072773;28;20165;-75
2023/03/11 07:49:00;;;;;;;7.55;4.38;;;16.40;70.80;;;;;;5071696;28;20168;-74
2023/03/11 07:51:28;;;;;;;6.60;4.40;;;17.00;1.00;;;;;;5072656;28;20161;-76
2023/03/11 07:53:55;;;;;;;6.63;4.30;;;17.60;1.00;;;;;;5072540;28;20173;-76
2023/03/11 07:56:23;;;;;;;11.35;4.60;;;17.50;1.00;;;;;;5072769;28;20164;-75
2023/03/11 07:58:50;;;;;;;9.93;5.15;;;18.00;1.00;;;;;;5072401;28;20679;-75
2023/03/11 08:01:18;;;;;;;4.93;4.20;;;18.30;99.90;;;;;;5072400;28;20200;-75
2023/03/11 08:03:46;;;;;;;9.70;4.20;;;18.40;99.90;;;;;;5071944;28;20252;-75
2023/03/11 08:06:19;;;;;;;7.20;4.00;;;19.50;99.90;;;;;;5072462;28;20164;-75
2023/03/11 08:08:44;;;;;;;9.10;4.03;;;20.00;99.90;;;;;;5072645;28;20200;-76
2023/03/11 08:11:14;;;;;;;8.23;4.40;;;20.80;99.90;;;;;;5072084;28;20239;-76
2023/03/11 08:13:42;;;;;;;7.70;4.15;;;19.90;99.90;;;;;;5072291;28;20228;-76
2023/03/11 08:16:09;;;;;;;5.75;4.50;;;19.50;99.90;;;;;;5075126;28;20165;-75
2023/03/11 08:18:35;;;;;;;6.82;4.22;;;19.60;99.90;;;;;;5075391;28;20204;-76
2023/03/11 08:21:09;;;;;;;11.43;4.65;;;19.80;99.90;;;;;;5075804;28;20171;-75
2023/03/11 08:23:35;;;;;;;7.95;4.57;;;18.70;99.90;;;;;;5075947;28;20195;-74
2023/03/11 08:26:11;;;;;;;7.85;4.43;;;17.90;99.90;;;;;;5076174;28;20161;-76
2023/03/11 08:28:36;;;;;;;10.05;4.55;;;18.30;99.90;;;;;;5075617;28;20176;-75
2023/03/11 08:31:10;;;;;;;7.95;4.80;;;17.90;99.90;;;;;;5075175;28;20164;-75
2023/03/11 08:33:35;;;;;;;5.60;4.20;;;18.50;99.90;;;;;;5075436;28;20176;-77
2023/03/11 08:36:01;;;;;;;8.27;4.60;;;18.90;99.90;;;;;;5075924;28;20517;-77
2023/03/11 08:38:27;;;;;;;6.45;4.47;;;18.90;99.90;;;;;;5075746;28;20219;-75
2023/03/11 08:40:52;;;;;;;8.43;4.50;;;19.10;99.90;;;;;;5075514;28;20549;-76
2023/03/11 08:43:18;;;;;;;6.78;4.57;;;19.60;99.90;;;;;;5075483;28;20190;-76
2023/03/11 08:45:43;;;;;;;8.45;4.68;;;19.80;99.90;;;;;;5075343;28;20169;-76
2023/03/11 08:48:10;;;;;;;6.00;4.32;;;20.30;99.90;;;;;;5075307;28;20176;-76
2023/03/11 08:50:38;;;;;;;9.27;4.50;;;20.50;99.90;;;;;;5075570;28;20246;-76
2023/03/11 08:53:04;;;;;;;6.50;4.28;;;20.80;99.90;;;;;;5075087;28;20176;-76
2023/03/11 08:55:29;;;;;;;6.55;4.28;;;20.90;99.90;;;;;;5075214;28;20172;-76
2023/03/11 08:57:55;;;;;;;7.45;4.20;;;21.00;99.90;;;;;;5075001;28;20713;-76
2023/03/11 09:00:21;;;;;;;7.20;4.60;;;20.80;99.90;;;;;;5075034;28;20233;-75
2023/03/11 09:02:47;;;;;;;6.53;4.78;;;20.60;99.90;;;;;;5074885;28;20176;-76
2023/03/11 09:05:12;;;;;;;6.55;3.97;;;19.80;99.90;;;;;;5075294;28;20671;-76
2023/03/11 09:07:38;;;;;;;10.18;4.63;;;19.80;99.90;;;;;;5074968;28;20168;-76
2023/03/11 09:10:05;;;;;;;6.50;4.22;;;20.20;99.90;;;;;;5074826;28;20219;-76
2023/03/11 09:12:31;;;;;;;7.43;4.75;;;19.70;99.90;;;;;;5074643;28;20179;-75
2023/03/11 09:14:59;;;;;;;8.73;4.47;;;20.20;99.90;;;;;;5074755;28;20220;-75
2023/03/11 09:17:25;;;;;;;8.73;4.30;;;20.10;99.90;;;;;;5074810;28;20212;-76
2023/03/11 09:19:51;;;;;;;4.40;3.65;;;20.50;99.90;;;;;;5075114;28;20165;-74
2023/03/11 09:22:16;;;;;;;5.68;3.65;;;21.00;99.90;;;;;;5074627;28;20171;-76
2023/03/11 09:24:42;;;;;;;9.75;3.65;;;20.50;99.90;;;;;;5074850;28;20616;-75
2023/03/11 09:27:11;;;;;;;8.43;3.13;;;20.70;99.90;;;;;;5073424;28;20169;-75
2023/03/11 09:29:37;;;;;;;7.05;3.83;;;20.60;99.90;;;;;;5074227;28;20256;-77
2023/03/11 09:32:03;;;;;;;4.97;3.83;;;20.70;99.90;;;;;;5074520;28;20616;-76
2023/03/11 09:34:29;;;;;;;7.78;3.40;;;19.90;99.90;;;;;;5075083;28;20204;-75
2023/03/11 09:36:54;;;;;;;5.50;3.83;;;19.60;99.90;;;;;;5074631;28;20501;-75
2023/03/11 09:39:20;;;;;;;6.78;3.55;;;19.20;99.90;;;;;;5074423;28;20724;-75
2023/03/11 09:41:53;;;;;;;9.15;4.22;;;18.10;99.90;;;;;;5056455;28;20177;-75
2023/03/11 09:44:38;;;;;;;3.60;2.75;;;17.30;99.90;;;;;;5074545;28;20252;-76
2023/03/11 09:47:19;;;;;;;4.28;2.90;;;16.30;99.90;;;;;;5074082;28;20172;-76
2023/03/11 09:50:13;;;;;;;4.63;3.00;;;16.80;99.90;;;;;;5074187;28;20643;-76
2023/03/11 09:53:03;;;;;;;5.13;2.97;;;18.20;99.90;;;;;;5073448;28;20196;-77
2023/03/11 09:55:40;;;;;;;3.88;2.50;;;19.50;99.90;;;;;;5042131;28;20180;-76
2023/03/11 09:58:13;;;;;;;5.55;3.13;;;19.30;99.90;;;;;;5073007;28;20211;-75
2023/03/11 10:00:40;;;;;;;8.00;2.92;;;18.40;99.90;;;;;;5073765;28;20245;-75
2023/03/11 10:03:16;;;;;;;6.60;2.85;;;17.60;99.90;;;;;;5074063;28;20168;-76
2023/03/11 10:05:44;;;;;;;4.15;2.70;;;17.70;99.90;;;;;;5073399;28;20161;-77
2023/03/11 10:08:49;;;;;;;6.97;2.90;;;18.20;99.90;;;;;;5073630;28;20171;-75
2023/03/11 10:12:01;;;;;;;5.40;2.55;;;17.80;99.90;;;;;;5001771;28;20251;-76
2023/03/11 10:15:05;;;;;;;3.65;2.40;;;18.30;99.90;;;;;;5073573;28;20216;-76
2023/03/11 10:17:58;;;;;;;3.55;2.90;;;17.90;99.90;;;;;;5071002;28;20271;-75
2023/03/11 10:20:39;;;;;;;5.50;2.47;;;18.30;99.90;;;;;;5073421;28;20248;-78
2023/03/11 10:23:29;;;;;;;4.53;2.30;;;17.90;99.90;;;;;;5073318;28;20172;-76
2023/03/11 10:26:08;;;;;;;3.88;2.40;;;18.30;99.90;;;;;;5055641;28;20169;-76
2023/03/11 10:28:50;;;;;;;5.70;2.60;;;18.80;99.90;;;;;;5073127;28;20180;-74
2023/03/11 10:32:00;;;;;;;3.33;2.30;;;18.80;99.90;;;;;;5073429;28;20662;-77
2023/03/11 10:34:33;;;;;;;7.57;3.70;;;18.80;99.90;;;;;;4975151;28;20179;-75
2023/03/11 10:37:04;;;;;;;4.28;2.88;;;18.70;99.90;;;;;;4991737;28;20237;-74
2023/03/11 10:39:31;;;;;;;2.75;2.55;;;17.80;99.90;;;;;;4991347;28;20218;-75
2023/03/11 10:42:03;;;;;;;4.57;2.50;;;16.60;99.90;;;;;;4991107;28;20182;-74
2023/03/11 10:44:38;;;;;;;3.17;2.33;;;15.20;99.90;;;;;;4991725;28;20179;-75
2023/03/11 10:47:05;;;;;;;5.93;2.50;;;14.30;99.90;;;;;;4991744;28;20177;-75
2023/03/11 10:49:31;;;;;;;5.97;2.42;;;14.30;99.90;;;;;;4991640;28;20270;-75
2023/03/11 10:51:57;;;;;;;4.25;2.25;;;13.80;99.90;;;;;;4991977;28;20186;-77
2023/03/11 10:54:25;;;;;;;23.20;14.43;;;13.90;99.90;;;;;;4991125;28;20179;-74
2023/03/11 10:56:58;;;;;;;4.45;2.40;;;14.20;99.90;;;;;;4990371;28;20179;-76
2023/03/11 10:59:45;;;;;;;3.95;2.60;;;14.80;99.90;;;;;;4991575;28;20230;-75
2023/03/11 11:02:36;;;;;;;6.72;3.00;;;14.10;99.90;;;;;;4991314;28;20183;-74
2023/03/11 11:05:05;;;;;;;5.80;2.65;;;14.40;99.90;;;;;;5027498;28;20639;-76
2023/03/11 11:07:34;;;;;;;6.13;2.47;;;14.70;99.90;;;;;;5072648;28;20647;-76
2023/03/11 11:10:15;;;;;;;8.48;2.78;;;14.20;99.90;;;;;;5072666;28;20212;-75
2023/03/11 11:13:01;;;;;;;4.90;2.80;;;13.20;99.90;;;;;;5072321;28;20172;-75
2023/03/11 11:15:26;;;;;;;3.57;2.80;;;12.50;99.90;;;;;;5073033;28;20185;-76
2023/03/11 11:17:55;;;;;;;6.47;2.83;;;13.00;99.90;;;;;;5072418;28;20277;-76
2023/03/11 11:20:23;;;;;;;6.80;2.83;;;13.60;99.90;;;;;;5054916;28;20172;-76
2023/03/11 11:22:52;;;;;;;4.35;2.70;;;14.40;99.90;;;;;;5072488;28;20173;-76
2023/03/11 11:25:33;;;;;;;5.10;2.65;;;15.10;99.90;;;;;;5072454;28;20178;-76
2023/03/11 11:28:04;;;;;;;5.85;2.70;;;16.50;99.90;;;;;;5072480;28;20164;-76
2023/03/11 11:30:30;;;;;;;6.28;2.65;;;15.40;99.90;;;;;;5072503;28;20194;-76
2023/03/11 11:33:13;;;;;;;4.10;2.40;;;13.90;99.90;;;;;;5072494;28;20222;-74
2023/03/11 11:35:50;;;;;;;4.00;2.72;;;13.10;99.90;;;;;;5054554;28;20174;-75
2023/03/11 11:38:15;;;;;;;4.27;2.67;;;12.90;99.90;;;;;;5072721;28;20199;-75
2023/03/11 11:40:41;;;;;;;4.43;2.70;;;12.10;99.90;;;;;;5070919;28;20561;-75
2023/03/11 11:43:20;;;;;;;5.00;2.60;;;12.20;99.90;;;;;;5071828;28;20251;-76
2023/03/11 11:45:52;;;;;;;8.27;3.43;;;12.30;99.90;;;;;;5072832;28;20168;-75
2023/03/11 11:48:28;;;;;;;4.77;2.70;;;12.60;99.90;;;;;;5072973;28;20252;-75
2023/03/11 11:50:59;;;;;;;2.60;2.40;;;12.30;99.90;;;;;;5074250;28;20164;-75
2023/03/11 11:53:27;;;;;;;6.77;3.30;;;11.60;99.90;;;;;;5075969;28;20168;-75
2023/03/11 11:55:53;;;;;;;3.60;2.53;;;11.50;1.00;;;;;;5075201;28;20161;-74
2023/03/11 11:58:20;;;;;;;4.33;2.33;;;11.30;1.00;;;;;;5076057;28;20215;-75
2023/03/11 12:01:02;;;;;;;5.07;2.27;;;11.10;1.00;;;;;;5076493;28;20647;-75
2023/03/11 12:03:45;;;;;;;5.27;2.70;;;10.60;1.00;;;;;;5075731;28;20191;-74
2023/03/11 12:06:25;;;;;;;6.20;2.70;;;10.50;1.00;;;;;;5075732;28;20204;-75
2023/03/11 12:08:54;;;;;;;6.37;3.03;;;10.70;1.00;;;;;;5058155;28;20222;-74
2023/03/11 12:11:35;;;;;;;6.93;3.63;;;10.60;1.00;;;;;;5075362;28;20188;-74
2023/03/11 12:14:29;;;;;;;4.83;3.20;;;10.10;1.00;;;;;;5075054;28;20216;-76
2023/03/11 12:17:00;;;;;;;6.23;3.47;;;9.90;1.00;;;;;;5075297;28;20187;-75
2023/03/11 12:19:55;;;;;;;7.63;3.33;;;10.20;99.90;;;;;;5075284;28;20299;-75
2023/03/11 12:22:35;;;;;;;8.00;3.00;;;10.50;1.00;;;;;;5075872;28;20197;-75
2023/03/11 12:25:10;;;;;;;6.53;3.17;;;11.10;1.00;;;;;;5075370;28;20191;-75
2023/03/11 12:28:23;;;;;;;9.03;3.50;;;11.50;1.00;;;;;;5057834;28;20164;-74
2023/03/11 12:30:56;;;;;;;14.47;11.53;;;12.00;1.00;;;;;;5068027;28;20207;-75
2023/03/11 12:33:42;;;;;;;13.27;8.87;;;12.30;1.00;;;;;;5075298;28;20169;-74
2023/03/11 12:36:22;;;;;;;7.30;3.00;;;12.30;1.00;;;;;;5074957;28;20323;-74
2023/03/11 12:38:49;;;;;;;10.37;3.50;;;12.00;1.00;;;;;;5075406;28;20253;-75
2023/03/11 12:41:14;;;;;;;7.63;3.00;;;11.60;1.00;;;;;;5074874;28;20218;-75
2023/03/11 12:43:40;;;;;;;7.73;3.00;;;11.50;1.00;;;;;;5075234;28;20172;-75
2023/03/11 12:46:16;;;;;;;6.77;2.80;;;11.00;1.00;;;;;;5075212;28;20210;-74
2023/03/11 12:48:48;;;;;;;8.63;3.27;;;10.90;1.00;;;;;;5074973;28;20218;-75
2023/03/11 12:51:26;;;;;;;11.13;3.90;;;10.90;1.00;;;;;;5075512;28;20176;-74
2023/03/11 12:53:53;;;;;;;33.73;17.27;;;10.90;1.00;;;;;;5074376;28;20169;-74
2023/03/11 12:56:43;;;;;;;27.90;15.20;;;10.80;1.00;;;;;;5075410;28;20534;-74
2023/03/11 12:59:24;;;;;;;8.47;4.10;;;10.70;1.00;;;;;;5074279;28;20299;-75
2023/03/11 13:02:36;;;;;;;8.33;4.37;;;10.50;1.00;;;;;;5074698;28;20176;-74
2023/03/11 13:05:16;;;;;;;10.80;3.13;;;10.60;1.00;;;;;;4993168;28;20182;-74